sensor_id;sensor_type;location;lat;lon;timestamp;pressure;altitude;pressure_sealevel;temperature;humidity
52735;BME280;38631;47.572;10.704;2023-03-21T00:00:29;92744.72;;;5.31;100.00
52735;BME280;38631;47.572;10.704;2023-03-21T00:02:55;92749.19;;;5.31;100.00
52735;BME280;38631;47.572;10.704;2023-03-21T00:05:21;92751.56;;;5.32;100.00
52735;BME280;38631;47.572;10.704;2023-03-21T00:07:46;92750.56;;;5.03;100.00
52735;BME280;38631;47.572;10.704;2023-03-21T00:10:12;92746.88;;;4.88;100.00
52735;BME280;38631;47.572;10.704;2023-03-21T00:12:37;92753.97;;;5.13;100.00
52735;BME280;38631;47.572;10.704;2023-03-21T00:15:07;92747.38;;;5.21;100.00
52735;BME280;38631;47.572;10.704;2023-03-21T00:17:33;92745.53;;;5.32;100.00
52735;BME280;38631;47.572;10.704;2023-03-21T00:20:01;92743.19;;;5.05;100.00
52735;BME280;38631;47.572;10.704;2023-03-21T00:22:33;92741.31;;;5.20;100.00
52735;BME280;38631;47.572;10.704;2023-03-21T00:24:59;92744.22;;;5.29;100.00
52735;BME280;38631;47.572;10.704;2023-03-21T00:27:24;92742.88;;;5.37;100.00
52735;BME280;38631;47.572;10.704;2023-03-21T00:29:50;92731.56;;;5.16;100.00
52735;BME280;38631;47.572;10.704;2023-03-21T00:32:16;92732.09;;;5.18;100.00
52735;BME280;38631;47.572;10.704;2023-03-21T00:34:41;92742.38;;;5.25;100.00
52735;BME280;38631;47.572;10.704;2023-03-21T00:37:07;92742.13;;;5.06;100.00
52735;BME280;38631;47.572;10.704;2023-03-21T00:39:34;92728.72;;;5.07;100.00
52735;BME280;38631;47.572;10.704;2023-03-21T00:41:59;92729.25;;;5.09;100.00
52735;BME280;38631;47.572;10.704;2023-03-21T00:44:25;92729.72;;;5.27;100.00
52735;BME280;38631;47.572;10.704;2023-03-21T00:46:50;92727.59;;;5.29;100.00
52735;BME280;38631;47.572;10.704;2023-03-21T00:49:16;92720.03;;;4.81;100.00
52735;BME280;38631;47.572;10.704;2023-03-21T00:51:42;92721.34;;;5.04;100.00
52735;BME280;38631;47.572;10.704;2023-03-21T00:54:10;92716.06;;;5.14;100.00
52735;BME280;38631;47.572;10.704;2023-03-21T00:56:35;92716.91;;;4.79;100.00
52735;BME280;38631;47.572;10.704;2023-03-21T00:59:01;92705.56;;;4.94;100.00
52735;BME280;38631;47.572;10.704;2023-03-21T01:01:26;92709.78;;;4.95;100.00
52735;BME280;38631;47.572;10.704;2023-03-21T01:03:59;92701.31;;;5.08;100.00
52735;BME280;38631;47.572;10.704;2023-03-21T01:06:30;92706.03;;;5.22;100.00
52735;BME280;38631;47.572;10.704;2023-03-21T01:08:56;92687.34;;;5.23;100.00
52735;BME280;38631;47.572;10.704;2023-03-21T01:11:27;92693.91;;;5.31;100.00
52735;BME280;38631;47.572;10.704;2023-03-21T01:13:53;92684.94;;;5.37;100.00
52735;BME280;38631;47.572;10.704;2023-03-21T01:16:19;92683.38;;;5.26;100.00
52735;BME280;38631;47.572;10.704;2023-03-21T01:18:44;92676.28;;;5.26;100.00
52735;BME280;38631;47.572;10.704;2023-03-21T01:21:12;92685.25;;;5.25;100.00
52735;BME280;38631;47.572;10.704;2023-03-21T01:23:40;92674.44;;;5.27;100.00
52735;BME280;38631;47.572;10.704;2023-03-21T01:26:06;92671.31;;;5.14;100.00
52735;BME280;38631;47.572;10.704;2023-03-21T01:28:36;92673.63;;;5.31;100.00
52735;BME280;38631;47.572;10.704;2023-03-21T01:31:02;92674.94;;;5.34;100.00
52735;BME280;38631;47.572;10.704;2023-03-21T01:33:29;92673.34;;;5.38;100.00
52735;BME280;38631;47.572;10.704;2023-03-21T01:35:55;92667.28;;;5.37;100.00
52735;BME280;38631;47.572;10.704;2023-03-21T01:38:20;92672.56;;;5.37;100.00
52735;BME280;38631;47.572;10.704;2023-03-21T01:40:47;92665.81;;;5.06;100.00
52735;BME280;38631;47.572;10.704;2023-03-21T01:46:19;92659.97;;;5.14;100.00
52735;BME280;38631;47.572;10.704;2023-03-21T01:48:48;92656.34;;;5.05;100.00
52735;BME280;38631;47.572;10.704;2023-03-21T01:51:16;92657.09;;;5.15;100.00
52735;BME280;38631;47.572;10.704;2023-03-21T01:53:41;92661.84;;;5.13;100.00
52735;BME280;38631;47.572;10.704;2023-03-21T01:56:13;92659.25;;;4.98;100.00
52735;BME280;38631;47.572;10.704;2023-03-21T01:58:41;92661.91;;;4.83;100.00
52735;BME280;38631;47.572;10.704;2023-03-21T02:01:07;92653.72;;;5.00;100.00
52735;BME280;38631;47.572;10.704;2023-03-21T02:03:33;92652.38;;;5.07;100.00
52735;BME280;38631;47.572;10.704;2023-03-21T02:06:39;92658.66;;;5.27;100.00
52735;BME280;38631;47.572;10.704;2023-03-21T02:09:07;92649.44;;;5.29;100.00
52735;BME280;38631;47.572;10.704;2023-03-21T02:11:34;92653.88;;;5.34;100.00
52735;BME280;38631;47.572;10.704;2023-03-21T02:14:01;92644.72;;;5.16;100.00
52735;BME280;38631;47.572;10.704;2023-03-21T02:16:47;92642.06;;;5.21;100.00
52735;BME280;38631;47.572;10.704;2023-03-21T02:22:09;92642.66;;;5.03;100.00
52735;BME280;38631;47.572;10.704;2023-03-21T02:27:58;92647.91;;;5.13;100.00
52735;BME280;38631;47.572;10.704;2023-03-21T02:30:47;92640.03;;;5.03;100.00
52735;BME280;38631;47.572;10.704;2023-03-21T02:33:40;92648.69;;;5.08;100.00
52735;BME280;38631;47.572;10.704;2023-03-21T02:44:22;92645.84;;;5.00;100.00
52735;BME280;38631;47.572;10.704;2023-03-21T02:46:56;92632.13;;;5.08;100.00
52735;BME280;38631;47.572;10.704;2023-03-21T02:49:45;92640.09;;;4.77;100.00
52735;BME280;38631;47.572;10.704;2023-03-21T02:52:16;92645.28;;;5.08;100.00
52735;BME280;38631;47.572;10.704;2023-03-21T02:54:44;92640.81;;;5.03;100.00
52735;BME280;38631;47.572;10.704;2023-03-21T02:57:13;92651.09;;;5.00;100.00
52735;BME280;38631;47.572;10.704;2023-03-21T02:59:38;92649.00;;;4.86;100.00
52735;BME280;38631;47.572;10.704;2023-03-21T03:02:04;92654.03;;;4.78;100.00
52735;BME280;38631;47.572;10.704;2023-03-21T03:04:30;92648.03;;;4.57;100.00
52735;BME280;38631;47.572;10.704;2023-03-21T03:09:54;92646.94;;;4.63;100.00
52735;BME280;38631;47.572;10.704;2023-03-21T03:15:03;92645.06;;;4.79;100.00
52735;BME280;38631;47.572;10.704;2023-03-21T03:17:50;92646.38;;;4.81;100.00
52735;BME280;38631;47.572;10.704;2023-03-21T03:20:21;92653.75;;;4.89;100.00
52735;BME280;38631;47.572;10.704;2023-03-21T03:23:06;92644.78;;;4.95;100.00
52735;BME280;38631;47.572;10.704;2023-03-21T03:25:44;92634.84;;;4.72;100.00
52735;BME280;38631;47.572;10.704;2023-03-21T03:28:15;92640.88;;;4.83;100.00
52735;BME280;38631;47.572;10.704;2023-03-21T03:30:42;92635.63;;;4.67;100.00
52735;BME280;38631;47.572;10.704;2023-03-21T03:33:09;92633.00;;;4.67;100.00
52735;BME280;38631;47.572;10.704;2023-03-21T03:35:35;92635.06;;;4.81;100.00
52735;BME280;38631;47.572;10.704;2023-03-21T03:38:04;92627.47;;;4.79;100.00
52735;BME280;38631;47.572;10.704;2023-03-21T03:40:45;92630.09;;;4.84;100.00
52735;BME280;38631;47.572;10.704;2023-03-21T03:43:27;92632.72;;;4.74;100.00
52735;BME280;38631;47.572;10.704;2023-03-21T03:45:59;92618.28;;;4.76;100.00
52735;BME280;38631;47.572;10.704;2023-03-21T03:48:31;92630.09;;;4.79;100.00
52735;BME280;38631;47.572;10.704;2023-03-21T03:51:03;92621.66;;;4.82;100.00
52735;BME280;38631;47.572;10.704;2023-03-21T03:53:40;92624.53;;;4.91;100.00
52735;BME280;38631;47.572;10.704;2023-03-21T03:56:08;92619.81;;;4.88;100.00
52735;BME280;38631;47.572;10.704;2023-03-21T03:58:35;92618.72;;;4.94;100.00
52735;BME280;38631;47.572;10.704;2023-03-21T04:01:03;92616.09;;;4.94;100.00
52735;BME280;38631;47.572;10.704;2023-03-21T04:03:29;92618.72;;;4.94;100.00
52735;BME280;38631;47.572;10.704;2023-03-21T04:05:54;92618.25;;;4.87;100.00
52735;BME280;38631;47.572;10.704;2023-03-21T04:08:19;92617.94;;;4.93;100.00
52735;BME280;38631;47.572;10.704;2023-03-21T04:10:47;92613.16;;;5.06;100.00
52735;BME280;38631;47.572;10.704;2023-03-21T04:13:12;92618.44;;;5.06;100.00
52735;BME280;38631;47.572;10.704;2023-03-21T04:15:38;92621.09;;;4.95;100.00
52735;BME280;38631;47.572;10.704;2023-03-21T04:18:03;92609.78;;;4.95;100.00
52735;BME280;38631;47.572;10.704;2023-03-21T04:20:29;92626.88;;;5.03;100.00
52735;BME280;38631;47.572;10.704;2023-03-21T04:22:55;92617.66;;;5.05;100.00
52735;BME280;38631;47.572;10.704;2023-03-21T04:25:20;92618.97;;;5.08;100.00
52735;BME280;38631;47.572;10.704;2023-03-21T04:27:46;92612.44;;;4.90;100.00
52735;BME280;38631;47.572;10.704;2023-03-21T04:30:13;92609.06;;;4.69;100.00
52735;BME280;38631;47.572;10.704;2023-03-21T04:32:39;92614.03;;;4.75;100.00
52735;BME280;38631;47.572;10.704;2023-03-21T04:35:08;92620.13;;;4.50;100.00
52735;BME280;38631;47.572;10.704;2023-03-21T04:37:34;92620.13;;;4.55;100.00
52735;BME280;38631;47.572;10.704;2023-03-21T04:40:00;92612.03;;;4.31;100.00
52735;BME280;38631;47.572;10.704;2023-03-21T04:42:30;92615.69;;;4.20;100.00
52735;BME280;38631;47.572;10.704;2023-03-21T04:44:56;92610.97;;;4.22;100.00
52735;BME280;38631;47.572;10.704;2023-03-21T04:47:21;92620.13;;;4.50;100.00
52735;BME280;38631;47.572;10.704;2023-03-21T04:49:46;92619.06;;;4.72;100.00
52735;BME280;38631;47.572;10.704;2023-03-21T04:52:12;92615.13;;;4.69;100.00
52735;BME280;38631;47.572;10.704;2023-03-21T04:54:38;92621.16;;;4.75;100.00
52735;BME280;38631;47.572;10.704;2023-03-21T04:57:03;92624.31;;;4.77;100.00
52735;BME280;38631;47.572;10.704;2023-03-21T04:59:29;92615.41;;;4.52;100.00
52735;BME280;38631;47.572;10.704;2023-03-21T05:01:54;92615.69;;;4.41;100.00
52735;BME280;38631;47.572;10.704;2023-03-21T05:04:22;92618.25;;;4.66;100.00
52735;BME280;38631;47.572;10.704;2023-03-21T05:06:48;92624.00;;;4.89;100.00
52735;BME280;38631;47.572;10.704;2023-03-21T05:09:13;92620.84;;;4.92;100.00
52735;BME280;38631;47.572;10.704;2023-03-21T05:11:39;92622.44;;;4.83;100.00
52735;BME280;38631;47.572;10.704;2023-03-21T05:14:07;92618.25;;;4.71;100.00
52735;BME280;38631;47.572;10.704;2023-03-21T05:16:33;92624.81;;;4.84;100.00
52735;BME280;38631;47.572;10.704;2023-03-21T05:19:01;92618.72;;;4.94;100.00
52735;BME280;38631;47.572;10.704;2023-03-21T05:21:30;92621.09;;;4.95;100.00
52735;BME280;38631;47.572;10.704;2023-03-21T05:23:58;92626.91;;;4.92;100.00
52735;BME280;38631;47.572;10.704;2023-03-21T05:26:28;92629.00;;;4.90;100.00
52735;BME280;38631;47.572;10.704;2023-03-21T05:28:54;92609.78;;;4.95;100.00
52735;BME280;38631;47.572;10.704;2023-03-21T05:31:20;92613.78;;;4.82;100.00
52735;BME280;38631;47.572;10.704;2023-03-21T05:33:46;92625.31;;;4.86;100.00
52735;BME280;38631;47.572;10.704;2023-03-21T05:36:12;92617.94;;;4.93;100.00
52735;BME280;38631;47.572;10.704;2023-03-21T05:38:38;92620.59;;;4.88;100.00
52735;BME280;38631;47.572;10.704;2023-03-21T05:41:07;92613.53;;;4.68;100.00
52735;BME280;38631;47.572;10.704;2023-03-21T05:43:32;92621.88;;;4.96;100.00
52735;BME280;38631;47.572;10.704;2023-03-21T05:45:58;92622.91;;;5.05;100.00
52735;BME280;38631;47.572;10.704;2023-03-21T05:48:23;92617.13;;;5.03;100.00
52735;BME280;38631;47.572;10.704;2023-03-21T05:50:48;92608.72;;;5.01;100.00
52735;BME280;38631;47.572;10.704;2023-03-21T05:53:14;92610.56;;;5.01;100.00
52735;BME280;38631;47.572;10.704;2023-03-21T05:55:39;92611.09;;;5.03;100.00
52735;BME280;38631;47.572;10.704;2023-03-21T05:58:04;92616.84;;;5.10;100.00
52735;BME280;38631;47.572;10.704;2023-03-21T06:00:30;92615.25;;;5.09;100.00
52735;BME280;38631;47.572;10.704;2023-03-21T06:02:56;92614.19;;;5.15;100.00
52735;BME280;38631;47.572;10.704;2023-03-21T06:05:21;92618.69;;;5.09;100.00
52735;BME280;38631;47.572;10.704;2023-03-21T06:07:46;92622.88;;;5.15;100.00
52735;BME280;38631;47.572;10.704;2023-03-21T06:10:12;92625.75;;;5.19;100.00
52735;BME280;38631;47.572;10.704;2023-03-21T06:12:37;92618.91;;;5.18;100.00
52735;BME280;38631;47.572;10.704;2023-03-21T06:15:04;92613.91;;;5.16;100.00
52735;BME280;38631;47.572;10.704;2023-03-21T06:17:30;92622.84;;;5.20;100.00
52735;BME280;38631;47.572;10.704;2023-03-21T06:19:55;92618.91;;;5.18;100.00
52735;BME280;38631;47.572;10.704;2023-03-21T06:22:21;92619.44;;;5.20;100.00
52735;BME280;38631;47.572;10.704;2023-03-21T06:24:46;92616.59;;;5.06;100.00
52735;BME280;38631;47.572;10.704;2023-03-21T06:27:12;92614.75;;;5.12;100.00
52735;BME280;38631;47.572;10.704;2023-03-21T06:29:38;92620.00;;;5.17;100.00
52735;BME280;38631;47.572;10.704;2023-03-21T06:32:03;92615.00;;;5.10;100.00
52735;BME280;38631;47.572;10.704;2023-03-21T06:34:28;92618.06;;;5.33;100.00
52735;BME280;38631;47.572;10.704;2023-03-21T06:36:54;92611.00;;;5.23;100.00
52735;BME280;38631;47.572;10.704;2023-03-21T06:39:20;92614.13;;;5.35;100.00
52735;BME280;38631;47.572;10.704;2023-03-21T06:41:45;92605.22;;;5.21;100.00
52735;BME280;38631;47.572;10.704;2023-03-21T06:44:10;92610.78;;;5.14;100.00
52735;BME280;38631;47.572;10.704;2023-03-21T06:46:36;92612.31;;;5.26;100.00
52735;BME280;38631;47.572;10.704;2023-03-21T06:49:02;92610.44;;;5.31;100.00
52735;BME280;38631;47.572;10.704;2023-03-21T06:51:27;92612.13;;;5.12;100.00
52735;BME280;38631;47.572;10.704;2023-03-21T06:53:53;92602.03;;;5.29;100.00
52735;BME280;38631;47.572;10.704;2023-03-21T06:56:18;92606.97;;;5.41;100.00
52735;BME280;38631;47.572;10.704;2023-03-21T06:58:44;92608.03;;;5.40;100.00
52735;BME280;38631;47.572;10.704;2023-03-21T07:01:09;92603.00;;;5.44;100.00
52735;BME280;38631;47.572;10.704;2023-03-21T07:03:35;92607.00;;;5.36;100.00
52735;BME280;38631;47.572;10.704;2023-03-21T07:06:09;92613.78;;;5.52;100.00
52735;BME280;38631;47.572;10.704;2023-03-21T07:08:37;92611.91;;;5.58;100.00
52735;BME280;38631;47.572;10.704;2023-03-21T07:11:03;92615.34;;;5.53;100.00
52735;BME280;38631;47.572;10.704;2023-03-21T07:13:29;92615.56;;;5.62;100.00
52735;BME280;38631;47.572;10.704;2023-03-21T07:15:55;92619.78;;;5.63;100.00
52735;BME280;38631;47.572;10.704;2023-03-21T07:18:20;92615.06;;;5.60;100.00
52735;BME280;38631;47.572;10.704;2023-03-21T07:20:47;92626.59;;;5.64;100.00
52735;BME280;38631;47.572;10.704;2023-03-21T07:23:20;92621.34;;;5.64;100.00
52735;BME280;38631;47.572;10.704;2023-03-21T07:25:48;92625.22;;;5.82;100.00
52735;BME280;38631;47.572;10.704;2023-03-21T07:28:14;92629.16;;;5.84;99.46
52735;BME280;38631;47.572;10.704;2023-03-21T07:30:40;92624.13;;;5.83;98.39
52735;BME280;38631;47.572;10.704;2023-03-21T07:33:06;92623.88;;;5.84;97.83
52735;BME280;38631;47.572;10.704;2023-03-21T07:35:32;92620.72;;;5.82;100.00
52735;BME280;38631;47.572;10.704;2023-03-21T07:37:57;92618.59;;;5.84;100.00
52735;BME280;38631;47.572;10.704;2023-03-21T07:40:23;92628.31;;;5.89;100.00
52735;BME280;38631;47.572;10.704;2023-03-21T07:42:48;92625.16;;;5.92;100.00
52735;BME280;38631;47.572;10.704;2023-03-21T07:45:15;92633.25;;;6.06;100.00
52735;BME280;38631;47.572;10.704;2023-03-21T07:47:45;92631.38;;;6.06;98.43
52735;BME280;38631;47.572;10.704;2023-03-21T07:50:10;92621.69;;;5.97;100.00
52735;BME280;38631;47.572;10.704;2023-03-21T07:52:36;92628.75;;;6.06;100.00
52735;BME280;38631;47.572;10.704;2023-03-21T07:55:01;92627.97;;;6.06;100.00
52735;BME280;38631;47.572;10.704;2023-03-21T07:57:26;92630.59;;;6.06;100.00
52735;BME280;38631;47.572;10.704;2023-03-21T07:59:52;92633.47;;;6.15;98.73
52735;BME280;38631;47.572;10.704;2023-03-21T08:02:17;92635.47;;;6.28;98.61
52735;BME280;38631;47.572;10.704;2023-03-21T08:04:43;92651.66;;;6.11;97.01
52735;BME280;38631;47.572;10.704;2023-03-21T08:07:09;92639.56;;;6.10;98.53
52735;BME280;38631;47.572;10.704;2023-03-21T08:09:35;92633.38;;;6.25;96.83
52735;BME280;38631;47.572;10.704;2023-03-21T08:12:01;92647.50;;;6.39;97.55
52735;BME280;38631;47.572;10.704;2023-03-21T08:14:26;92647.31;;;6.31;97.17
52735;BME280;38631;47.572;10.704;2023-03-21T08:16:51;92651.97;;;6.39;97.94
52735;BME280;38631;47.572;10.704;2023-03-21T08:19:17;92644.38;;;6.37;98.95
52735;BME280;38631;47.572;10.704;2023-03-21T08:21:47;92641.66;;;6.47;97.06
52735;BME280;38631;47.572;10.704;2023-03-21T08:24:13;92642.47;;;6.43;96.48
52735;BME280;38631;47.572;10.704;2023-03-21T08:26:39;92650.34;;;6.48;95.55
52735;BME280;38631;47.572;10.704;2023-03-21T08:29:04;92631.06;;;6.53;96.43
52735;BME280;38631;47.572;10.704;2023-03-21T08:31:30;92629.19;;;6.53;94.54
52735;BME280;38631;47.572;10.704;2023-03-21T08:33:55;92631.56;;;6.55;94.86
52735;BME280;38631;47.572;10.704;2023-03-21T08:36:22;92627.72;;;6.71;94.56
52735;BME280;38631;47.572;10.704;2023-03-21T08:38:47;92623.69;;;6.79;95.34
52735;BME280;38631;47.572;10.704;2023-03-21T08:41:15;92617.09;;;6.76;96.25
52735;BME280;38631;47.572;10.704;2023-03-21T08:43:41;92607.28;;;6.82;96.99
52735;BME280;38631;47.572;10.704;2023-03-21T08:46:06;92601.63;;;6.93;97.32
52735;BME280;38631;47.572;10.704;2023-03-21T08:48:31;92609.34;;;6.90;95.70
52735;BME280;38631;47.572;10.704;2023-03-21T08:50:59;92605.81;;;6.95;94.32
52735;BME280;38631;47.572;10.704;2023-03-21T08:53:24;92603.38;;;7.03;94.93
52735;BME280;38631;47.572;10.704;2023-03-21T08:55:50;92602.19;;;7.14;94.75
52735;BME280;38631;47.572;10.704;2023-03-21T08:58:16;92604.03;;;7.14;93.89
52735;BME280;38631;47.572;10.704;2023-03-21T09:00:41;92595.56;;;7.17;93.76
52735;BME280;38631;47.572;10.704;2023-03-21T09:03:07;92601.59;;;7.23;93.68
52735;BME280;38631;47.572;10.704;2023-03-21T09:05:32;92606.38;;;7.40;94.70
52735;BME280;38631;47.572;10.704;2023-03-21T09:07:58;92603.97;;;7.43;93.59
52735;BME280;38631;47.572;10.704;2023-03-21T09:10:25;92601.91;;;7.40;93.39
52735;BME280;38631;47.572;10.704;2023-03-21T09:12:52;92610.47;;;7.51;93.72
52735;BME280;38631;47.572;10.704;2023-03-21T09:15:18;92596.63;;;7.40;92.40
52735;BME280;38631;47.572;10.704;2023-03-21T09:17:45;92595.75;;;7.45;92.04
52735;BME280;38631;47.572;10.704;2023-03-21T09:20:14;92599.63;;;7.52;91.51
52735;BME280;38631;47.572;10.704;2023-03-21T09:22:47;92605.13;;;7.56;93.33
52735;BME280;38631;47.572;10.704;2023-03-21T09:25:14;92606.41;;;7.58;91.90
52735;BME280;38631;47.572;10.704;2023-03-21T09:27:40;92603.13;;;7.67;92.43
52735;BME280;38631;47.572;10.704;2023-03-21T09:30:08;92600.22;;;7.68;90.25
52735;BME280;38631;47.572;10.704;2023-03-21T09:32:35;92610.16;;;7.76;87.56
52735;BME280;38631;47.572;10.704;2023-03-21T09:35:01;92607.50;;;7.76;86.88
52735;BME280;38631;47.572;10.704;2023-03-21T09:37:26;92609.44;;;7.71;85.84
52735;BME280;38631;47.572;10.704;2023-03-21T09:39:52;92617.81;;;7.78;85.39
52735;BME280;38631;47.572;10.704;2023-03-21T09:42:39;92619.53;;;7.88;84.09
52735;BME280;38631;47.572;10.704;2023-03-21T09:45:20;92624.00;;;7.87;83.84
52735;BME280;38631;47.572;10.704;2023-03-21T09:47:50;92619.72;;;7.91;83.92
52735;BME280;38631;47.572;10.704;2023-03-21T09:50:23;92622.88;;;7.93;82.41
52735;BME280;38631;47.572;10.704;2023-03-21T09:52:56;92609.78;;;8.02;83.48
52735;BME280;38631;47.572;10.704;2023-03-21T09:55:28;92606.22;;;7.93;79.86
52735;BME280;38631;47.572;10.704;2023-03-21T09:58:05;92606.00;;;7.89;78.39
52735;BME280;38631;47.572;10.704;2023-03-21T10:00:38;92597.38;;;8.03;79.91
52735;BME280;38631;47.572;10.704;2023-03-21T10:03:28;92605.06;;;8.18;81.51
52735;BME280;38631;47.572;10.704;2023-03-21T10:05:55;92601.16;;;8.15;81.54
52735;BME280;38631;47.572;10.704;2023-03-21T10:08:29;92604.84;;;8.14;79.43
52735;BME280;38631;47.572;10.704;2023-03-21T10:11:05;92608.78;;;8.17;79.84
52735;BME280;38631;47.572;10.704;2023-03-21T10:13:39;92605.88;;;8.32;81.14
52735;BME280;38631;47.572;10.704;2023-03-21T10:16:17;92602.84;;;8.44;81.66
52735;BME280;38631;47.572;10.704;2023-03-21T10:18:44;92593.03;;;8.44;82.02
52735;BME280;38631;47.572;10.704;2023-03-21T10:21:19;92590.78;;;8.52;80.34
52735;BME280;38631;47.572;10.704;2023-03-21T10:23:45;92580.63;;;8.73;80.43
52735;BME280;38631;47.572;10.704;2023-03-21T10:26:10;92576.66;;;8.89;81.05
52735;BME280;38631;47.572;10.704;2023-03-21T10:28:39;92581.94;;;8.89;79.94
52735;BME280;38631;47.572;10.704;2023-03-21T10:31:07;92572.72;;;8.86;80.68
52735;BME280;38631;47.572;10.704;2023-03-21T10:33:35;92571.53;;;8.93;81.98
52735;BME280;38631;47.572;10.704;2023-03-21T10:36:07;92565.97;;;8.94;81.00
52735;BME280;38631;47.572;10.704;2023-03-21T10:38:34;92569.78;;;9.02;81.26
52735;BME280;38631;47.572;10.704;2023-03-21T10:41:00;92567.13;;;9.02;81.39
52735;BME280;38631;47.572;10.704;2023-03-21T10:45:54;92566.34;;;9.15;81.21
52735;BME280;38631;47.572;10.704;2023-03-21T10:48:20;92565.09;;;9.26;81.46
52735;BME280;38631;47.572;10.704;2023-03-21T10:50:48;92554.97;;;9.15;80.13
52735;BME280;38631;47.572;10.704;2023-03-21T10:53:28;92560.78;;;9.30;81.14
52735;BME280;38631;47.572;10.704;2023-03-21T10:55:56;92552.31;;;9.15;79.22
52735;BME280;38631;47.572;10.704;2023-03-21T10:58:34;92559.00;;;9.12;79.82
52735;BME280;38631;47.572;10.704;2023-03-21T11:01:06;92560.78;;;9.17;78.73
52735;BME280;38631;47.572;10.704;2023-03-21T11:03:38;92557.34;;;9.16;78.37
52735;BME280;38631;47.572;10.704;2023-03-21T11:06:13;92562.31;;;9.18;77.81
52735;BME280;38631;47.572;10.704;2023-03-21T11:09:12;92556.03;;;9.27;78.85
52735;BME280;38631;47.572;10.704;2023-03-21T11:14:34;92557.13;;;9.26;78.17
52735;BME280;38631;47.572;10.704;2023-03-21T11:17:00;92548.69;;;9.24;78.51
52735;BME280;38631;47.572;10.704;2023-03-21T11:19:34;92552.34;;;9.28;78.39
52735;BME280;38631;47.572;10.704;2023-03-21T11:22:06;92556.03;;;9.27;78.58
52735;BME280;38631;47.572;10.704;2023-03-21T11:24:32;92548.31;;;9.31;78.29
52735;BME280;38631;47.572;10.704;2023-03-21T11:26:59;92552.81;;;9.30;77.63
52735;BME280;38631;47.572;10.704;2023-03-21T11:29:35;92549.97;;;9.27;76.01
52735;BME280;38631;47.572;10.704;2023-03-21T11:32:20;92544.78;;;9.36;76.83
52735;BME280;38631;47.572;10.704;2023-03-21T11:34:48;92542.69;;;9.33;76.53
52735;BME280;38631;47.572;10.704;2023-03-21T11:37:26;92541.22;;;9.40;77.30
52735;BME280;38631;47.572;10.704;2023-03-21T11:45:28;92524.13;;;9.33;75.64
52735;BME280;38631;47.572;10.704;2023-03-21T11:47:55;92517.66;;;9.39;75.17
52735;BME280;38631;47.572;10.704;2023-03-21T11:50:32;92533.97;;;9.46;75.44
52735;BME280;38631;47.572;10.704;2023-03-21T11:58:30;92516.72;;;9.71;75.04
52735;BME280;38631;47.572;10.704;2023-03-21T12:01:07;92511.09;;;9.72;74.61
52735;BME280;38631;47.572;10.704;2023-03-21T12:09:34;92502.22;;;9.91;75.49
52735;BME280;38631;47.572;10.704;2023-03-21T12:12:17;92494.41;;;9.94;72.94
52735;BME280;38631;47.572;10.704;2023-03-21T12:44:20;92477.66;;;10.30;71.54
52735;BME280;38631;47.572;10.704;2023-03-21T12:46:53;92475.69;;;10.36;72.05
52735;BME280;38631;47.572;10.704;2023-03-21T12:53:25;92456.41;;;10.30;70.15
52735;BME280;38631;47.572;10.704;2023-03-21T12:55:20;92467.09;;;10.39;70.15
52735;BME280;38631;47.572;10.704;2023-03-21T12:57:49;92461.16;;;10.42;69.98
52735;BME280;38631;47.572;10.704;2023-03-21T13:00:21;92469.91;;;10.43;70.60
52735;BME280;38631;47.572;10.704;2023-03-21T13:05:34;92460.06;;;10.43;69.22
52735;BME280;38631;47.572;10.704;2023-03-21T13:08:23;92454.66;;;10.48;69.11
52735;BME280;38631;47.572;10.704;2023-03-21T13:10:49;92449.84;;;10.59;68.18
52735;BME280;38631;47.572;10.704;2023-03-21T13:15:50;92445.03;;;10.70;69.69
52735;BME280;38631;47.572;10.704;2023-03-21T13:18:30;92450.41;;;10.78;69.42
52735;BME280;38631;47.572;10.704;2023-03-21T13:21:00;92450.25;;;10.84;66.43
52735;BME280;38631;47.572;10.704;2023-03-21T13:23:37;92452.78;;;10.89;68.01
52735;BME280;38631;47.572;10.704;2023-03-21T13:26:10;92455.38;;;10.80;66.87
52735;BME280;38631;47.572;10.704;2023-03-21T13:28:38;92447.59;;;10.92;67.15
52735;BME280;38631;47.572;10.704;2023-03-21T13:31:23;92438.88;;;10.92;66.49
52735;BME280;38631;47.572;10.704;2023-03-21T13:33:52;92451.41;;;11.09;69.01
52735;BME280;38631;47.572;10.704;2023-03-21T13:36:28;92445.81;;;11.28;67.19
52735;BME280;38631;47.572;10.704;2023-03-21T13:39:00;92449.84;;;11.08;67.37
52735;BME280;38631;47.572;10.704;2023-03-21T13:41:35;92443.63;;;11.30;69.01
52735;BME280;38631;47.572;10.704;2023-03-21T13:46:59;92434.38;;;11.01;70.24
52735;BME280;38631;47.572;10.704;2023-03-21T13:49:37;92434.03;;;11.02;69.47
52735;BME280;38631;47.572;10.704;2023-03-21T13:54:52;92431.41;;;11.20;69.99
52735;BME280;38631;47.572;10.704;2023-03-21T13:57:21;92426.72;;;11.17;70.37
52735;BME280;38631;47.572;10.704;2023-03-21T13:59:47;92421.72;;;11.33;70.97
52735;BME280;38631;47.572;10.704;2023-03-21T14:02:32;92419.22;;;11.45;70.42
52735;BME280;38631;47.572;10.704;2023-03-21T14:05:06;92414.22;;;11.26;69.18
52735;BME280;38631;47.572;10.704;2023-03-21T14:07:43;92416.75;;;11.49;69.04
52735;BME280;38631;47.572;10.704;2023-03-21T14:13:02;92412.66;;;11.42;68.72
52735;BME280;38631;47.572;10.704;2023-03-21T14:15:37;92407.19;;;11.56;67.53
52735;BME280;38631;47.572;10.704;2023-03-21T14:18:05;92404.69;;;11.60;68.19
52735;BME280;38631;47.572;10.704;2023-03-21T14:20:36;92409.53;;;11.75;68.10
52735;BME280;38631;47.572;10.704;2023-03-21T14:23:07;92391.22;;;11.65;67.87
52735;BME280;38631;47.572;10.704;2023-03-21T14:25:36;92390.94;;;11.49;69.76
52735;BME280;38631;47.572;10.704;2023-03-21T14:28:05;92388.56;;;11.74;69.54
52735;BME280;38631;47.572;10.704;2023-03-21T14:33:00;92388.72;;;11.60;68.00
52735;BME280;38631;47.572;10.704;2023-03-21T14:35:28;92388.41;;;11.70;68.60